Time;durP1;ratioP1;P1;durP2;ratioP2;P2;SDS_P1;SDS_P2;PMS_P1;PMS_P2;Temp;Humidity;BMP_temperature;BMP_pressure;BME280_temperature;BME280_humidity;BME280_pressure;Samples;Min_cycle;Max_cycle;Signal;HPM_P1;HPM_P2
2021/10/06 00:01:58;;;;;;;6.53;1.40;;;11.30;99.90;;;;;;4995300;28;20073;-62
2021/10/06 00:04:24;;;;;;;11.85;1.70;;;11.30;99.90;;;;;;4994867;28;20049;-61
2021/10/06 00:06:50;;;;;;;7.88;1.45;;;11.30;99.90;;;;;;5007790;28;20046;-61
2021/10/06 00:09:15;;;;;;;8.88;1.60;;;11.30;99.90;;;;;;5004396;28;20464;-62
2021/10/06 00:11:42;;;;;;;6.43;1.30;;;11.20;99.90;;;;;;5009407;28;20094;-60
2021/10/06 00:14:09;;;;;;;5.60;1.50;;;11.30;99.90;;;;;;4994291;28;20054;-60
2021/10/06 00:16:36;;;;;;;7.32;1.45;;;11.20;99.90;;;;;;5008725;28;20394;-61
2021/10/06 00:19:02;;;;;;;7.50;1.65;;;11.20;99.90;;;;;;5002677;28;20034;-61
2021/10/06 00:21:28;;;;;;;8.20;1.88;;;11.20;99.90;;;;;;4992116;28;20034;-60
2021/10/06 00:23:54;;;;;;;12.10;1.65;;;11.20;99.90;;;;;;5001876;28;20034;-60
2021/10/06 00:26:20;;;;;;;7.72;1.42;;;11.20;99.90;;;;;;4996981;28;20022;-59
2021/10/06 00:28:45;;;;;;;6.38;1.70;;;11.20;99.90;;;;;;5001039;28;20033;-61
2021/10/06 00:31:14;;;;;;;9.50;1.83;;;11.20;99.90;;;;;;5009911;28;20054;-62
2021/10/06 00:33:40;;;;;;;5.78;1.30;;;11.20;99.90;;;;;;4995067;28;20046;-60
2021/10/06 00:36:05;;;;;;;4.90;1.13;;;11.20;99.90;;;;;;5008502;28;20033;-61
2021/10/06 00:38:32;;;;;;;9.25;1.42;;;11.30;99.90;;;;;;4995276;28;20073;-61
2021/10/06 00:40:58;;;;;;;6.38;1.35;;;11.30;99.90;;;;;;5000438;28;20781;-61
2021/10/06 00:43:23;;;;;;;9.13;1.83;;;11.30;99.90;;;;;;5007638;28;20484;-60
2021/10/06 00:45:49;;;;;;;10.40;1.58;;;11.30;99.90;;;;;;5005829;28;20484;-61
2021/10/06 00:48:15;;;;;;;7.43;1.60;;;11.30;99.90;;;;;;5009025;28;20037;-61
2021/10/06 00:50:42;;;;;;;11.20;1.92;;;11.30;99.90;;;;;;4991682;28;20042;-60
2021/10/06 00:53:08;;;;;;;5.57;1.20;;;11.40;99.90;;;;;;4997075;28;20065;-61
2021/10/06 00:55:36;;;;;;;6.30;1.55;;;11.40;99.90;;;;;;4994068;28;20488;-60
2021/10/06 00:58:02;;;;;;;8.68;1.55;;;11.40;99.90;;;;;;5000133;28;20101;-60
2021/10/06 01:00:28;;;;;;;7.45;1.55;;;11.40;99.90;;;;;;4997250;28;20492;-60
2021/10/06 01:02:54;;;;;;;10.30;1.83;;;11.40;99.90;;;;;;5000455;28;20075;-61
2021/10/06 01:05:20;;;;;;;8.70;1.60;;;11.40;99.90;;;;;;5011587;28;20129;-60
2021/10/06 01:07:45;;;;;;;6.70;1.45;;;11.40;99.90;;;;;;4999243;28;20108;-60
2021/10/06 01:10:11;;;;;;;11.07;1.52;;;11.40;99.90;;;;;;5001720;28;20034;-60
2021/10/06 01:12:38;;;;;;;5.88;1.50;;;11.40;99.90;;;;;;5003768;28;20551;-60
2021/10/06 01:15:08;;;;;;;4.78;1.25;;;11.50;99.90;;;;;;5004797;28;20109;-61
2021/10/06 01:17:33;;;;;;;5.68;1.38;;;11.40;99.90;;;;;;5007787;28;20030;-60
2021/10/06 01:19:59;;;;;;;10.80;1.83;;;11.50;99.90;;;;;;5004839;28;20546;-61
2021/10/06 01:22:25;;;;;;;6.00;1.30;;;11.40;99.90;;;;;;5008801;28;20038;-62
2021/10/06 01:24:51;;;;;;;5.22;1.40;;;11.40;99.90;;;;;;4994738;28;20399;-62
2021/10/06 01:27:16;;;;;;;8.63;1.20;;;11.40;99.90;;;;;;4999906;28;20121;-61
2021/10/06 01:29:42;;;;;;;4.35;1.30;;;11.40;99.90;;;;;;4996193;28;20034;-62
2021/10/06 01:32:13;;;;;;;8.43;1.60;;;11.40;99.90;;;;;;5000715;28;20118;-61
2021/10/06 01:34:39;;;;;;;6.82;1.40;;;11.40;99.90;;;;;;4993977;28;20057;-61
2021/10/06 01:37:06;;;;;;;6.68;1.15;;;11.40;99.90;;;;;;5008136;28;20022;-60
2021/10/06 01:39:32;;;;;;;7.25;1.38;;;11.40;99.90;;;;;;5009458;28;20026;-60
2021/10/06 01:41:58;;;;;;;9.23;1.38;;;11.40;99.90;;;;;;5003706;28;20050;-60
2021/10/06 01:44:24;;;;;;;9.02;1.42;;;11.30;99.90;;;;;;5001066;28;20703;-61
2021/10/06 01:46:51;;;;;;;5.80;1.50;;;11.40;99.90;;;;;;4998431;28;20396;-60
2021/10/06 01:49:16;;;;;;;7.28;1.30;;;11.30;99.90;;;;;;5002106;28;20030;-60
2021/10/06 01:51:42;;;;;;;6.82;1.35;;;11.30;99.90;;;;;;5008473;28;20097;-61
2021/10/06 01:54:09;;;;;;;9.90;1.35;;;11.30;99.90;;;;;;4997555;28;20476;-60
2021/10/06 01:56:34;;;;;;;6.15;1.40;;;11.30;99.90;;;;;;5005706;28;20038;-60
2021/10/06 01:59:01;;;;;;;6.07;1.23;;;11.30;99.90;;;;;;4997159;28;20037;-60
2021/10/06 02:01:27;;;;;;;5.93;1.33;;;11.30;99.90;;;;;;5010811;28;20463;-60
2021/10/06 02:03:53;;;;;;;8.10;1.45;;;11.20;99.90;;;;;;5006815;28;20257;-62
2021/10/06 02:06:19;;;;;;;4.47;1.10;;;11.30;99.90;;;;;;5005319;28;20045;-60
2021/10/06 02:08:45;;;;;;;7.03;1.60;;;11.20;99.90;;;;;;5003210;28;20044;-60
2021/10/06 02:11:11;;;;;;;5.60;1.20;;;11.30;99.90;;;;;;5010632;28;20034;-62
2021/10/06 02:13:37;;;;;;;5.88;1.45;;;11.30;99.90;;;;;;5010649;28;20483;-61
2021/10/06 02:16:03;;;;;;;5.97;1.45;;;11.30;99.90;;;;;;5009631;28;20037;-60
2021/10/06 02:18:28;;;;;;;8.23;1.50;;;11.30;99.90;;;;;;5008562;28;20034;-60
2021/10/06 02:20:54;;;;;;;8.75;1.33;;;11.30;99.90;;;;;;5009758;28;20041;-61
2021/10/06 02:23:20;;;;;;;6.28;1.20;;;11.30;99.90;;;;;;5004998;28;20081;-61
2021/10/06 02:25:46;;;;;;;12.00;1.30;;;11.40;99.90;;;;;;5006883;28;20030;-60
2021/10/06 02:28:11;;;;;;;6.65;1.25;;;11.40;99.90;;;;;;5007046;28;20544;-60
2021/10/06 02:30:38;;;;;;;4.13;1.00;;;11.40;99.90;;;;;;4997233;28;20105;-62
2021/10/06 02:33:04;;;;;;;8.40;1.67;;;11.40;99.90;;;;;;5000995;28;20044;-62
2021/10/06 02:35:30;;;;;;;6.78;1.50;;;11.30;99.90;;;;;;4997184;28;20377;-60
2021/10/06 02:37:56;;;;;;;7.57;1.55;;;11.40;99.90;;;;;;4998571;28;20049;-61
2021/10/06 02:40:22;;;;;;;12.55;1.45;;;11.40;99.90;;;;;;5009229;28;20054;-60
2021/10/06 02:42:50;;;;;;;7.95;1.60;;;11.40;99.90;;;;;;5012848;28;20475;-61
2021/10/06 02:45:18;;;;;;;7.93;1.55;;;11.40;99.90;;;;;;5005522;28;20105;-61
2021/10/06 02:47:44;;;;;;;8.68;1.40;;;11.40;99.90;;;;;;5003637;28;20542;-60
2021/10/06 02:50:13;;;;;;;10.38;1.75;;;11.40;99.90;;;;;;5015595;28;20080;-61
2021/10/06 02:52:38;;;;;;;7.22;1.60;;;11.40;99.90;;;;;;5021137;28;20030;-61
2021/10/06 02:55:06;;;;;;;8.20;1.52;;;11.40;99.90;;;;;;5024498;28;20476;-60
2021/10/06 02:57:33;;;;;;;11.82;1.83;;;11.50;99.90;;;;;;5026476;28;20037;-61
2021/10/06 02:59:58;;;;;;;10.43;1.73;;;11.50;99.90;;;;;;5021669;28;20796;-61
2021/10/06 03:02:24;;;;;;;10.45;1.70;;;11.50;99.90;;;;;;5024375;28;20040;-62
2021/10/06 03:04:50;;;;;;;8.18;1.50;;;11.50;99.90;;;;;;5017449;28;20032;-60
2021/10/06 03:07:15;;;;;;;9.07;1.33;;;11.40;99.90;;;;;;5029763;28;20095;-60
2021/10/06 03:09:42;;;;;;;7.40;1.58;;;11.50;99.90;;;;;;5020188;28;20038;-61
2021/10/06 03:12:08;;;;;;;6.70;1.52;;;11.50;99.90;;;;;;5019557;28;20044;-60
2021/10/06 03:14:34;;;;;;;6.50;1.63;;;11.50;99.90;;;;;;5030371;28;20116;-60
2021/10/06 03:16:59;;;;;;;6.75;1.27;;;11.40;99.90;;;;;;5019428;28;20492;-61
2021/10/06 03:19:25;;;;;;;7.63;1.55;;;11.50;99.90;;;;;;5015985;28;20037;-60
2021/10/06 03:21:51;;;;;;;7.57;1.17;;;11.50;99.90;;;;;;5018189;28;20088;-60
2021/10/06 03:24:18;;;;;;;7.90;1.50;;;11.50;99.90;;;;;;5019885;28;20107;-62
2021/10/06 03:26:43;;;;;;;10.73;1.45;;;11.40;99.90;;;;;;5015334;28;20056;-60
2021/10/06 03:29:09;;;;;;;4.88;1.25;;;11.40;99.90;;;;;;5027293;28;20037;-61
2021/10/06 03:31:35;;;;;;;8.30;1.70;;;11.40;99.90;;;;;;5015713;28;20510;-60
2021/10/06 03:34:01;;;;;;;6.88;1.40;;;11.40;99.90;;;;;;5031022;28;20026;-60
2021/10/06 03:36:27;;;;;;;8.63;1.60;;;11.40;99.90;;;;;;5019028;28;20041;-61
2021/10/06 03:38:53;;;;;;;6.47;1.10;;;11.50;99.90;;;;;;5014933;28;20040;-59
2021/10/06 03:41:19;;;;;;;8.50;1.48;;;11.40;99.90;;;;;;5031213;28;20021;-60
2021/10/06 03:43:45;;;;;;;6.95;1.23;;;11.50;99.90;;;;;;5019604;28;20069;-61
2021/10/06 03:46:11;;;;;;;6.82;1.50;;;11.40;99.90;;;;;;5028248;28;20036;-61
2021/10/06 03:48:37;;;;;;;6.55;1.35;;;11.50;99.90;;;;;;5024817;28;20030;-59
2021/10/06 03:51:03;;;;;;;6.45;1.33;;;11.40;99.90;;;;;;5030596;28;20533;-60
2021/10/06 03:53:29;;;;;;;7.30;1.70;;;11.40;99.90;;;;;;5027949;28;20092;-63
2021/10/06 03:55:54;;;;;;;7.93;1.30;;;11.40;99.90;;;;;;5014182;28;20025;-60
2021/10/06 03:58:20;;;;;;;8.80;1.58;;;11.40;99.90;;;;;;5027259;28;20034;-61
2021/10/06 04:00:46;;;;;;;5.95;1.50;;;11.40;99.90;;;;;;5021232;28;20507;-61
2021/10/06 04:03:13;;;;;;;9.48;1.60;;;11.40;99.90;;;;;;5025581;28;20097;-62
2021/10/06 04:05:39;;;;;;;8.15;1.45;;;11.40;99.90;;;;;;5023421;28;20049;-60
2021/10/06 04:08:05;;;;;;;6.95;1.60;;;11.40;99.90;;;;;;5016626;28;20077;-62
2021/10/06 04:10:31;;;;;;;5.05;1.35;;;11.40;99.90;;;;;;5012435;28;20624;-60
2021/10/06 04:12:57;;;;;;;11.27;1.63;;;11.40;99.90;;;;;;5023687;28;20054;-61
2021/10/06 04:15:23;;;;;;;8.70;1.92;;;11.40;99.90;;;;;;5021719;28;20049;-61
2021/10/06 04:17:49;;;;;;;6.85;1.38;;;11.30;99.90;;;;;;5015580;28;20066;-60
2021/10/06 04:20:15;;;;;;;10.65;1.75;;;11.30;99.90;;;;;;5017988;28;20467;-60
2021/10/06 04:22:41;;;;;;;6.38;1.48;;;11.30;99.90;;;;;;5031071;28;20033;-60
2021/10/06 04:25:08;;;;;;;8.55;1.70;;;11.30;99.90;;;;;;5011368;28;20033;-61
2021/10/06 04:27:34;;;;;;;8.20;1.55;;;11.30;99.90;;;;;;5014503;28;20049;-61
2021/10/06 04:30:02;;;;;;;8.43;1.70;;;11.20;99.90;;;;;;5018315;28;20041;-61
2021/10/06 04:32:27;;;;;;;6.07;1.30;;;11.30;99.90;;;;;;5020116;28;20463;-61
2021/10/06 04:34:53;;;;;;;9.85;1.77;;;11.30;99.90;;;;;;5025743;28;20043;-60
2021/10/06 04:37:19;;;;;;;8.38;1.83;;;11.20;99.90;;;;;;5029965;28;20037;-61
2021/10/06 04:39:44;;;;;;;9.57;1.63;;;11.30;99.90;;;;;;5023434;28;20091;-60
2021/10/06 04:42:10;;;;;;;12.45;1.80;;;11.30;99.90;;;;;;5018345;28;20032;-60
2021/10/06 04:44:36;;;;;;;7.78;1.40;;;11.30;99.90;;;;;;5006464;28;20472;-61
2021/10/06 04:47:02;;;;;;;11.75;1.83;;;11.20;99.90;;;;;;5011519;28;20034;-59
2021/10/06 04:49:27;;;;;;;8.25;1.67;;;11.30;99.90;;;;;;5014118;28;20038;-61
2021/10/06 04:51:53;;;;;;;11.05;1.60;;;11.20;99.90;;;;;;5011072;28;20073;-61
2021/10/06 04:54:19;;;;;;;10.93;2.38;;;11.30;99.90;;;;;;5027375;28;20381;-60
2021/10/06 04:56:45;;;;;;;8.63;1.55;;;11.30;99.90;;;;;;5019638;28;20505;-60
2021/10/06 04:59:10;;;;;;;13.52;2.15;;;11.30;99.90;;;;;;5030772;28;20034;-60
2021/10/06 05:01:36;;;;;;;6.63;1.38;;;11.30;99.90;;;;;;5021789;28;20084;-61
2021/10/06 05:04:02;;;;;;;11.82;1.92;;;11.30;99.90;;;;;;5004277;28;20038;-58
2021/10/06 05:06:27;;;;;;;5.30;1.73;;;11.30;99.90;;;;;;5028719;28;20021;-61
2021/10/06 05:08:53;;;;;;;11.20;1.90;;;11.30;99.90;;;;;;5019559;28;20038;-59
2021/10/06 05:11:19;;;;;;;10.55;1.98;;;11.30;99.90;;;;;;5013485;28;20056;-61
2021/10/06 05:13:44;;;;;;;10.52;1.70;;;11.30;99.90;;;;;;5021340;28;20499;-61
2021/10/06 05:16:10;;;;;;;8.45;1.70;;;11.20;99.90;;;;;;5023055;28;20365;-60
2021/10/06 05:18:36;;;;;;;12.43;2.45;;;11.20;99.90;;;;;;5025278;28;20034;-61
2021/10/06 05:21:01;;;;;;;14.85;1.85;;;11.20;99.90;;;;;;5023000;28;20036;-61
2021/10/06 05:23:27;;;;;;;14.00;2.05;;;11.20;99.90;;;;;;5025253;28;20375;-59
2021/10/06 05:25:53;;;;;;;13.40;2.08;;;11.20;99.90;;;;;;5030009;28;20041;-60
2021/10/06 05:28:20;;;;;;;8.50;1.55;;;11.20;99.90;;;;;;5015126;28;20145;-62
2021/10/06 05:30:46;;;;;;;7.28;1.50;;;11.20;99.90;;;;;;5009825;28;20476;-60
2021/10/06 05:33:11;;;;;;;10.60;2.00;;;11.20;99.90;;;;;;5025663;28;20034;-61
2021/10/06 05:35:37;;;;;;;11.27;2.25;;;11.20;99.90;;;;;;5030024;28;20037;-61
2021/10/06 05:38:03;;;;;;;10.88;1.77;;;11.20;99.90;;;;;;5016278;28;20195;-61
2021/10/06 05:40:29;;;;;;;8.23;1.38;;;11.20;99.90;;;;;;5029228;28;20029;-60
2021/10/06 05:42:54;;;;;;;14.18;1.85;;;11.30;99.90;;;;;;5011891;28;20471;-59
2021/10/06 05:45:20;;;;;;;17.00;1.90;;;11.30;99.90;;;;;;5023686;28;20036;-61
2021/10/06 05:47:46;;;;;;;12.68;1.90;;;11.30;99.90;;;;;;5010647;28;20040;-61
2021/10/06 05:50:12;;;;;;;13.77;2.10;;;11.20;99.90;;;;;;5026006;28;20045;-59
2021/10/06 05:52:37;;;;;;;8.50;1.73;;;11.30;99.90;;;;;;5025602;28;20030;-61
2021/10/06 05:55:04;;;;;;;22.60;2.80;;;11.30;99.90;;;;;;5024268;28;20034;-57
2021/10/06 05:57:30;;;;;;;15.13;1.80;;;11.30;99.90;;;;;;5008659;28;20034;-60
2021/10/06 05:59:56;;;;;;;13.20;1.92;;;11.30;99.90;;;;;;5016451;28;20029;-60
2021/10/06 06:02:21;;;;;;;15.23;1.92;;;11.20;99.90;;;;;;5023418;28;20038;-59
2021/10/06 06:04:47;;;;;;;11.40;1.83;;;11.30;99.90;;;;;;5025371;28;20037;-59
2021/10/06 06:07:13;;;;;;;9.23;2.08;;;11.30;99.90;;;;;;5023941;28;20121;-60
2021/10/06 06:09:39;;;;;;;11.43;1.95;;;11.20;99.90;;;;;;5016747;28;20037;-60
2021/10/06 06:12:09;;;;;;;13.77;1.63;;;11.20;99.90;;;;;;5032911;28;20040;-60
2021/10/06 06:14:35;;;;;;;13.60;2.38;;;11.20;99.90;;;;;;5020603;28;20042;-60
2021/10/06 06:17:01;;;;;;;8.93;2.00;;;11.20;99.90;;;;;;5016033;28;20391;-60
2021/10/06 06:19:27;;;;;;;14.88;1.98;;;11.20;99.90;;;;;;5020218;28;20029;-60
2021/10/06 06:21:52;;;;;;;11.02;1.98;;;11.20;99.90;;;;;;5025438;28;20031;-59
2021/10/06 06:24:18;;;;;;;9.95;1.98;;;11.20;99.90;;;;;;5011213;28;20125;-60
2021/10/06 06:26:44;;;;;;;16.52;2.28;;;11.20;99.90;;;;;;5012488;28;20037;-61
2021/10/06 06:29:10;;;;;;;18.10;2.03;;;11.20;99.90;;;;;;5013599;28;20034;-60
2021/10/06 06:31:36;;;;;;;12.25;1.58;;;11.20;99.90;;;;;;4997583;28;20479;-59
2021/10/06 06:34:01;;;;;;;11.02;2.28;;;11.20;99.90;;;;;;4993569;28;20118;-60
2021/10/06 06:36:27;;;;;;;13.40;1.92;;;11.20;99.90;;;;;;5008497;28;20435;-62
2021/10/06 06:38:53;;;;;;;12.82;1.83;;;11.20;99.90;;;;;;5008235;28;20049;-60
2021/10/06 06:41:19;;;;;;;17.63;2.08;;;11.20;99.90;;;;;;5001096;28;20038;-60
2021/10/06 06:43:45;;;;;;;11.98;2.15;;;11.20;99.90;;;;;;5011392;28;20029;-60
2021/10/06 06:46:10;;;;;;;15.40;2.00;;;11.20;99.90;;;;;;5006559;28;20034;-59
2021/10/06 06:48:36;;;;;;;13.27;2.10;;;11.20;99.90;;;;;;5012313;28;20041;-58
2021/10/06 06:51:02;;;;;;;14.05;2.40;;;11.20;99.90;;;;;;5006358;28;20463;-60
2021/10/06 06:53:28;;;;;;;13.48;2.20;;;11.20;99.90;;;;;;5009204;28;20464;-60
2021/10/06 06:55:55;;;;;;;11.93;1.80;;;11.10;99.90;;;;;;5011237;28;20096;-60
2021/10/06 06:58:21;;;;;;;15.13;2.03;;;11.10;99.90;;;;;;5008659;28;20519;-61
2021/10/06 07:00:48;;;;;;;9.57;2.20;;;11.10;99.90;;;;;;5010878;28;20041;-62
2021/10/06 07:03:13;;;;;;;11.55;2.47;;;11.10;99.90;;;;;;5012318;28;20049;-61
2021/10/06 07:05:39;;;;;;;10.35;1.60;;;11.20;99.90;;;;;;5009514;28;20716;-61
2021/10/06 07:08:05;;;;;;;16.40;2.22;;;11.20;99.90;;;;;;5001342;28;20438;-61
2021/10/06 07:10:31;;;;;;;16.58;2.17;;;11.30;99.90;;;;;;5005849;28;20077;-59
2021/10/06 07:12:56;;;;;;;12.38;1.90;;;11.30;99.90;;;;;;4993323;28;20099;-61
2021/10/06 07:15:22;;;;;;;18.58;2.63;;;11.30;99.90;;;;;;5005431;28;20120;-60
2021/10/06 07:17:48;;;;;;;11.98;1.90;;;11.20;99.90;;;;;;5018653;28;20034;-61
2021/10/06 07:20:21;;;;;;;14.27;2.58;;;11.20;99.90;;;;;;4997839;28;20030;-61
2021/10/06 07:22:48;;;;;;;14.52;2.20;;;11.20;99.90;;;;;;4993419;28;20388;-61
2021/10/06 07:25:17;;;;;;;14.77;2.50;;;11.20;99.90;;;;;;4992960;28;20052;-60
2021/10/06 07:27:43;;;;;;;18.48;2.85;;;11.20;99.90;;;;;;5005147;28;20066;-60
2021/10/06 07:30:10;;;;;;;14.20;2.47;;;11.10;99.90;;;;;;5000258;28;20463;-59
2021/10/06 07:32:36;;;;;;;12.60;2.55;;;11.10;99.90;;;;;;4993311;28;20054;-60
2021/10/06 07:35:02;;;;;;;11.10;2.28;;;11.20;99.90;;;;;;5003282;28;20037;-60
2021/10/06 07:37:28;;;;;;;14.55;2.88;;;11.30;99.90;;;;;;4995050;28;20049;-60
2021/10/06 07:39:54;;;;;;;10.20;2.50;;;11.30;99.90;;;;;;4992438;28;20041;-59
2021/10/06 07:42:20;;;;;;;18.42;2.88;;;11.40;99.90;;;;;;5002017;28;20022;-61
2021/10/06 07:44:46;;;;;;;19.67;2.38;;;11.40;99.90;;;;;;4993997;28;20034;-60
2021/10/06 07:47:12;;;;;;;14.93;2.35;;;11.50;99.90;;;;;;4991791;28;20471;-60
2021/10/06 07:49:39;;;;;;;12.43;2.70;;;11.60;99.90;;;;;;4996712;28;20057;-61
2021/10/06 07:52:05;;;;;;;14.82;2.63;;;11.60;99.90;;;;;;5009001;28;20026;-60
2021/10/06 07:54:31;;;;;;;12.10;2.15;;;11.50;99.90;;;;;;4999936;28;20040;-60
2021/10/06 07:56:56;;;;;;;13.02;2.67;;;11.50;99.90;;;;;;5010997;28;20038;-59
2021/10/06 07:59:22;;;;;;;9.15;1.98;;;11.60;99.90;;;;;;4998689;28;20053;-60
2021/10/06 08:01:48;;;;;;;17.88;2.53;;;11.70;99.90;;;;;;5002248;28;20022;-58
2021/10/06 08:04:14;;;;;;;11.65;2.38;;;11.90;99.90;;;;;;4992326;28;20037;-61
2021/10/06 08:06:39;;;;;;;11.75;2.97;;;12.20;99.90;;;;;;4991080;28;20361;-61
2021/10/06 08:09:06;;;;;;;9.90;2.63;;;12.50;99.90;;;;;;4992086;28;20091;-61
2021/10/06 08:11:34;;;;;;;18.63;2.75;;;12.80;99.90;;;;;;5003853;28;20030;-61
2021/10/06 08:14:00;;;;;;;14.40;2.63;;;12.90;99.90;;;;;;4998607;28;20050;-61
2021/10/06 08:16:25;;;;;;;12.07;2.78;;;12.90;99.90;;;;;;4997312;28;20406;-61
2021/10/06 08:18:51;;;;;;;14.23;2.55;;;12.70;99.90;;;;;;5003340;28;20045;-61
2021/10/06 08:21:17;;;;;;;14.75;2.67;;;12.70;99.90;;;;;;5009673;28;20034;-61
2021/10/06 08:23:42;;;;;;;17.08;3.13;;;12.80;99.90;;;;;;5002267;28;20077;-60
2021/10/06 08:26:08;;;;;;;14.15;2.10;;;13.10;99.90;;;;;;4998825;28;20133;-60
2021/10/06 08:28:34;;;;;;;17.08;2.42;;;13.30;99.90;;;;;;4996026;28;20050;-61
2021/10/06 08:30:59;;;;;;;15.73;2.58;;;13.60;99.90;;;;;;5009180;28;20037;-61
2021/10/06 08:33:25;;;;;;;16.35;2.30;;;13.70;99.90;;;;;;5009418;28;20480;-61
2021/10/06 08:35:51;;;;;;;11.20;2.00;;;13.80;99.90;;;;;;5010198;28;20042;-61
2021/10/06 08:38:17;;;;;;;9.30;1.95;;;13.90;99.90;;;;;;5008453;28;20101;-62
2021/10/06 08:40:43;;;;;;;13.85;2.00;;;14.00;99.90;;;;;;5006657;28;20156;-60
2021/10/06 08:43:09;;;;;;;9.23;1.70;;;14.10;99.90;;;;;;5007428;28;20542;-61
2021/10/06 08:45:36;;;;;;;11.18;2.20;;;14.20;99.90;;;;;;5007679;28;20034;-60
2021/10/06 08:48:06;;;;;;;9.65;2.20;;;14.20;99.90;;;;;;5008802;28;20044;-61
2021/10/06 08:50:32;;;;;;;5.75;1.58;;;14.20;99.90;;;;;;5004762;28;20036;-61
2021/10/06 08:52:58;;;;;;;10.95;2.38;;;14.20;99.90;;;;;;5005073;28;20030;-60
2021/10/06 08:55:29;;;;;;;14.95;2.13;;;14.30;99.90;;;;;;5010957;28;20041;-61
2021/10/06 08:58:06;;;;;;;15.13;2.60;;;14.40;99.90;;;;;;5014786;28;20443;-60
2021/10/06 09:00:52;;;;;;;10.65;1.90;;;14.40;99.90;;;;;;5010123;28;20088;-61
2021/10/06 09:03:28;;;;;;;9.60;2.00;;;14.50;99.90;;;;;;5013161;28;20026;-59
2021/10/06 09:06:04;;;;;;;16.50;1.73;;;14.60;99.90;;;;;;5008824;28;20030;-62
2021/10/06 09:08:31;;;;;;;8.90;1.75;;;14.50;99.90;;;;;;5009209;28;20811;-60
2021/10/06 09:10:57;;;;;;;11.15;1.80;;;14.50;99.90;;;;;;5024839;28;20064;-60
2021/10/06 09:13:28;;;;;;;12.98;2.15;;;14.60;99.90;;;;;;5021823;28;20492;-59
2021/10/06 09:15:54;;;;;;;11.60;1.90;;;14.60;99.90;;;;;;5016235;28;20038;-60
2021/10/06 09:18:24;;;;;;;7.47;1.85;;;14.70;99.90;;;;;;5015676;28;20438;-61
2021/10/06 09:20:52;;;;;;;7.82;2.20;;;14.90;99.90;;;;;;5022351;28;20410;-61
2021/10/06 09:23:20;;;;;;;10.30;1.70;;;14.90;99.90;;;;;;5028363;28;20607;-62
2021/10/06 09:25:54;;;;;;;13.43;3.22;;;14.70;99.90;;;;;;5027461;28;20048;-61
2021/10/06 09:28:35;;;;;;;10.70;1.43;;;14.60;99.90;;;;;;5017994;28;20029;-60
2021/10/06 09:31:16;;;;;;;8.07;1.92;;;14.60;99.90;;;;;;5033976;28;20276;-60
2021/10/06 09:33:43;;;;;;;5.80;1.38;;;14.50;99.90;;;;;;5033324;28;20040;-60
2021/10/06 09:36:10;;;;;;;7.20;1.38;;;14.40;99.90;;;;;;5031728;28;20115;-61
2021/10/06 09:38:48;;;;;;;9.38;2.30;;;14.20;99.90;;;;;;5033426;28;20053;-61
2021/10/06 09:41:36;;;;;;;12.32;2.10;;;14.30;99.90;;;;;;5032972;28;20038;-62
2021/10/06 09:44:28;;;;;;;7.65;1.83;;;14.30;99.90;;;;;;5003586;28;20471;-60
2021/10/06 09:47:02;;;;;;;9.30;1.92;;;14.20;99.90;;;;;;5025236;28;20124;-61
2021/10/06 09:49:29;;;;;;;9.48;2.17;;;14.30;99.90;;;;;;5034126;28;20054;-61
2021/10/06 09:52:30;;;;;;;10.23;2.03;;;14.20;99.90;;;;;;5028014;28;20029;-60
2021/10/06 09:55:07;;;;;;;11.23;2.45;;;14.10;99.90;;;;;;4993577;28;20046;-60
2021/10/06 09:57:38;;;;;;;10.27;2.08;;;14.30;99.90;;;;;;5028987;28;20491;-62
2021/10/06 10:00:09;;;;;;;7.82;1.70;;;14.30;99.90;;;;;;5033697;28;20021;-60
2021/10/06 10:02:35;;;;;;;7.35;1.92;;;14.20;99.90;;;;;;5023069;28;20041;-60
2021/10/06 10:05:02;;;;;;;13.23;2.38;;;14.20;99.90;;;;;;5033457;28;20431;-61
2021/10/06 10:07:28;;;;;;;11.88;2.25;;;14.40;99.90;;;;;;5032996;28;20029;-59
2021/10/06 10:09:54;;;;;;;11.82;2.17;;;14.50;99.90;;;;;;5033608;28;20395;-59
2021/10/06 10:12:23;;;;;;;9.55;1.92;;;14.40;99.90;;;;;;5022951;28;20482;-59
2021/10/06 10:14:50;;;;;;;8.38;2.10;;;14.50;99.90;;;;;;5022582;28;20079;-59
2021/10/06 10:17:17;;;;;;;8.20;1.70;;;14.50;99.90;;;;;;5018383;28;20026;-59
2021/10/06 10:20:00;;;;;;;11.65;2.25;;;14.50;99.90;;;;;;5029620;28;20021;-60
2021/10/06 10:22:30;;;;;;;9.32;1.50;;;14.50;99.90;;;;;;5022744;28;20112;-58
2021/10/06 10:24:56;;;;;;;9.25;1.73;;;14.40;99.90;;;;;;5027819;28;20456;-58
2021/10/06 10:27:24;;;;;;;7.18;1.60;;;14.30;99.90;;;;;;5021641;28;20041;-58
2021/10/06 10:30:05;;;;;;;11.73;2.08;;;14.30;99.90;;;;;;5032742;28;20037;-58
2021/10/06 10:32:46;;;;;;;12.80;2.22;;;14.40;99.90;;;;;;5022638;28;20071;-60
2021/10/06 10:35:20;;;;;;;9.13;1.50;;;14.50;99.90;;;;;;5026848;28;20463;-61
2021/10/06 10:37:48;;;;;;;13.45;1.92;;;14.60;99.90;;;;;;5023380;28;20503;-62
2021/10/06 10:40:44;;;;;;;11.52;1.92;;;14.70;99.90;;;;;;5031960;28;20041;-60
2021/10/06 10:43:11;;;;;;;;;;;14.80;99.90;;;;;;5020249;28;20050;-61
2021/10/06 10:45:41;;;;;;;12.57;2.38;;;14.80;99.90;;;;;;5013819;28;19916;-61
2021/10/06 10:48:10;;;;;;;10.70;1.75;;;14.70;99.90;;;;;;5030785;28;20116;-60
2021/10/06 10:50:45;;;;;;;14.63;2.05;;;14.70;99.90;;;;;;5032708;28;20497;-60
2021/10/06 10:53:16;;;;;;;7.63;1.50;;;14.70;99.90;;;;;;5032162;28;20064;-61
2021/10/06 10:55:47;;;;;;;8.82;1.73;;;14.70;99.90;;;;;;5018619;28;20025;-61
2021/10/06 10:58:36;;;;;;;7.68;2.03;;;14.70;99.90;;;;;;5026312;28;20025;-57
2021/10/06 11:01:07;;;;;;;10.60;1.73;;;14.80;99.90;;;;;;5032236;28;20033;-62
2021/10/06 11:03:53;;;;;;;6.03;1.40;;;14.70;99.90;;;;;;5032302;28;20087;-60
2021/10/06 11:06:44;;;;;;;9.07;1.52;;;14.70;99.90;;;;;;5032308;28;20036;-60
2021/10/06 11:09:31;;;;;;;9.77;1.92;;;14.70;99.90;;;;;;5025262;28;20069;-60
2021/10/06 11:12:06;;;;;;;11.55;2.20;;;14.70;99.90;;;;;;5032230;28;20033;-60
2021/10/06 11:14:40;;;;;;;10.75;1.80;;;14.70;99.90;;;;;;5022951;28;20046;-58
2021/10/06 11:17:12;;;;;;;6.43;1.63;;;14.70;99.90;;;;;;5029350;28;20111;-59
2021/10/06 11:19:55;;;;;;;8.27;1.58;;;14.90;99.90;;;;;;5027590;28;20033;-60
2021/10/06 11:22:23;;;;;;;8.82;1.85;;;14.90;99.90;;;;;;5031492;28;20084;-59
2021/10/06 11:24:58;;;;;;;5.72;1.73;;;14.90;99.90;;;;;;5032079;28;20030;-57
2021/10/06 11:27:25;;;;;;;11.60;1.90;;;15.00;99.90;;;;;;5026734;28;20037;-59
2021/10/06 11:29:53;;;;;;;10.02;1.60;;;15.00;99.90;;;;;;5027860;28;20033;-57
2021/10/06 11:32:19;;;;;;;6.82;1.45;;;14.90;99.90;;;;;;5031854;28;20026;-59
2021/10/06 11:34:50;;;;;;;8.68;1.75;;;15.00;99.90;;;;;;5031577;28;20057;-60
2021/10/06 11:37:25;;;;;;;6.85;1.55;;;15.00;99.90;;;;;;5029342;28;20036;-60
2021/10/06 11:39:51;;;;;;;8.18;2.20;;;15.00;99.90;;;;;;5026097;28;20327;-60
2021/10/06 11:42:18;;;;;;;6.53;1.63;;;14.90;99.90;;;;;;5032081;28;20029;-60
2021/10/06 11:44:44;;;;;;;13.10;2.45;;;14.90;99.90;;;;;;5015901;28;20235;-58
2021/10/06 11:47:14;;;;;;;8.65;1.88;;;15.00;99.90;;;;;;5025526;28;20456;-58
2021/10/06 11:49:42;;;;;;;8.20;1.70;;;15.00;99.90;;;;;;5021809;28;20029;-59
2021/10/06 11:52:13;;;;;;;9.23;1.90;;;15.00;99.90;;;;;;5031582;28;20033;-60
2021/10/06 11:54:39;;;;;;;6.88;1.85;;;15.00;99.90;;;;;;5025303;28;20036;-59
2021/10/06 11:57:07;;;;;;;8.63;1.67;;;15.00;99.90;;;;;;5023762;28;20037;-60
2021/10/06 11:59:34;;;;;;;7.22;1.60;;;14.90;99.90;;;;;;5029447;28;20018;-59
2021/10/06 12:02:06;;;;;;;10.45;1.67;;;14.90;99.90;;;;;;5021635;28;20037;-58
2021/10/06 12:04:38;;;;;;;8.20;1.50;;;15.00;99.90;;;;;;5028160;28;20021;-59
2021/10/06 12:07:16;;;;;;;7.57;1.90;;;15.00;99.90;;;;;;5031406;28;20040;-59
2021/10/06 12:09:54;;;;;;;10.70;1.60;;;15.00;99.90;;;;;;5027628;28;20033;-58
2021/10/06 12:12:30;;;;;;;9.23;3.90;;;15.10;99.90;;;;;;5031051;28;20033;-61
2021/10/06 12:15:02;;;;;;;4.88;1.58;;;15.10;99.90;;;;;;5022029;28;20030;-60
2021/10/06 12:17:31;;;;;;;8.23;1.67;;;15.10;99.90;;;;;;5031370;28;20025;-59
2021/10/06 12:20:04;;;;;;;9.93;1.63;;;15.20;99.90;;;;;;5025923;28;20040;-59
2021/10/06 12:22:35;;;;;;;12.15;2.05;;;15.20;99.90;;;;;;5031227;28;20144;-60
2021/10/06 12:25:01;;;;;;;7.40;1.60;;;15.30;99.90;;;;;;5030147;28;20431;-59
2021/10/06 12:27:29;;;;;;;9.50;1.60;;;15.40;99.90;;;;;;5031200;28;20033;-60
2021/10/06 12:30:04;;;;;;;11.77;2.13;;;15.50;99.90;;;;;;5024400;28;20030;-59
2021/10/06 12:32:30;;;;;;;8.82;1.90;;;15.50;99.90;;;;;;5031332;28;20483;-59
2021/10/06 12:35:18;;;;;;;12.13;2.40;;;15.60;99.90;;;;;;5030187;28;20026;-59
2021/10/06 12:37:48;;;;;;;12.27;1.77;;;15.70;99.90;;;;;;5030914;28;20041;-61
2021/10/06 12:40:42;;;;;;;7.53;1.90;;;15.70;99.90;;;;;;5023246;28;20025;-60
2021/10/06 12:43:22;;;;;;;10.30;1.85;;;15.60;99.90;;;;;;5028139;28;20868;-60
2021/10/06 12:46:06;;;;;;;10.40;1.60;;;15.60;99.90;;;;;;5008170;28;20083;-60
2021/10/06 12:48:33;;;;;;;7.88;1.98;;;15.60;99.90;;;;;;5021809;28;20466;-60